Carveacre (1166, 625) Station Data

Red Flag Warning: No
Fire Weather Zone: 251
SDGE Region: Eastern
Lat/Lon: 32.784/-116.723

Observations

Time Wind Speed/Gust Temp(F) RH Fuel Moist Fuel Temp(F) Dewpt(F) Tmax(F) Tmin(F) Accum Precip 10-min Precip SL Press(mb)
6/22 5:00am 91 2 G 5 71° 26% - - 35° 74.8° 65.3° - - -
6/22 4:50am 123 3 G 6 69° 34% - - 39° 74.8° 65.3° - - -
6/22 4:40am 122 2 G 5 70° 34% - - 40° 74.8° 65.3° - - -
6/22 4:30am 101 2 G 6 69° 32% - - 38° 74.8° 65.3° - - -
6/22 4:20am 101 3 G 5 70° 35% - - 40° 74.8° 65.3° - - -
6/22 4:10am 104 1 G 3 69° 44% - - 46° 74.8° 65.3° - - -
6/22 4:00am 110 2 G 3 69° 46% - - 47° 74.8° 65.3° - - -
6/22 3:50am 119 1 G 2 66° 60% - - 52° 74.8° 65.3° - - -
6/22 3:40am 268 0 G 1 66° 61% - - 53° 74.8° 65.6° - - -
6/22 3:30am 300 0 G 1 67° 56% - - 51° 74.8° 66.8° - - -
6/22 3:20am 190 1 G 2 68° 55% - - 51° 74.8° 67.1° - - -
6/22 3:10am 143 2 G 3 69° 50% - - 49° 74.8° 68° - - -
6/22 3:00am 346 1 G 4 70° 48% - - 49° 74.8° 68.1° - - -
6/22 2:50am 61 1 G 3 71° 47% - - 50° 74.8° 68.1° - - -
6/22 2:40am 97 3 G 6 72° 46% - - 50° 74.8° 68.1° - - -
6/22 2:30am 104 1 G 6 70° 51% - - 51° 74.8° 68.1° - - -
6/22 2:20am 105 2 G 4 71° 50% - - 51° 74.8° 68.1° - - -
6/22 2:10am 106 2 G 4 71° 50% - - 51° 74.8° 68.1° - - -
6/22 2:00am 80 2 G 3 71° 51% - - 52° 74.8° 68.1° - - -
6/22 1:50am 85 1 G 3 69° 55% - - 53° 74.8° 68.1° - - -
6/22 1:40am 128 0 G 2 68° 59% - - 54° 74.8° 68.1° - - -
6/22 1:30am 294 0 G 1 69° 59% - - 54° 74.8° 68.4° - - -
6/22 1:20am 315 0 G 2 69° 57% - - 54° 74.8° 69° - - -
6/22 1:10am 337 1 G 2 70° 56% - - 53° 74.8° 69.3° - - -
6/22 1:00am 91 0 G 1 70° 56% - - 53° 74.8° 69.3° - - -
6/22 12:50am 140 0 G 1 71° 54% - - 53° 74.8° 70.1° - - -
6/22 12:40am 141 1 G 2 72° 50% - - 52° 74.8° 71.1° - - -
6/22 12:30am 133 3 G 5 72° 49% - - 52° 74.8° 71.6° - - -
6/22 12:20am 112 2 G 4 73° 47% - - 52° 74.8° 72° - - -
6/22 12:10am 117 3 G 5 74° 45% - - 52° 74.8° 73.5° - - -
6/22 12:00am 101 1 G 5 75° 46% - - 52° 97.1° 71° - - -
6/21 11:50pm 110 2 G 4 73° 49% - - 53° 97.1° 71° - - -
6/21 11:40pm 130 3 G 5 72° 52% - - 54° 97.1° 71° - - -
6/21 11:30pm 133 2 G 5 73° 52% - - 54° 97.1° 71° - - -
6/21 11:20pm 129 2 G 4 73° 56% - - 56° 97.1° 71° - - -
6/21 11:10pm 134 2 G 3 71° 59% - - 56° 97.1° 71° - - -
6/21 11:00pm 87 1 G 3 72° 59% - - 56° 97.1° 71.2° - - -
6/21 10:50pm 60 1 G 3 72° 59% - - 57° 97.1° 71.2° - - -
6/21 10:40pm 56 5 G 5 73° 59% - - 57° 97.1° 71.5° - - -
6/21 10:30pm 66 3 G 5 73° 59% - - 58° 97.1° 71.5° - - -
6/21 10:20pm 93 1 G 2 72° 60% - - 57° 97.1° 71.5° - - -
6/21 10:10pm 325 0 G 0 72° 59% - - 57° 97.1° 71.7° - - -
6/21 10:00pm 300 0 G 1 73° 57% - - 57° 97.1° 72.4° - - -
6/21 9:50pm 125 1 G 2 74° 56% - - 57° 97.1° 72.4° - - -
6/21 9:40pm 0 0 G 0 74° 56% - - 57° 97.1° 72.4° - - -
6/21 9:30pm 323 0 G 1 75° 53% - - 57° 97.1° 72.4° - - -
6/21 9:20pm 316 0 G 2 76° 52% - - 57° 97.1° 72.4° - - -
6/21 9:10pm 119 1 G 2 76° 52% - - 57° 97.1° 72.4° - - -
6/21 9:00pm 134 2 G 2 76° 52% - - 57° 97.1° 72.4° - - -
6/21 8:50pm 119 1 G 2 76° 50% - - 57° 97.1° 72.4° - - -
6/21 8:40pm 79 0 G 1 78° 47% - - 57° 97.1° 72.4° - - -
6/21 8:30pm 58 1 G 2 79° 47% - - 57° 97.1° 72.4° - - -
6/21 8:20pm 107 1 G 2 78° 48% - - 57° 97.1° 72.4° - - -
6/21 8:10pm 122 1 G 2 79° 46% - - 57° 97.1° 72.4° - - -
6/21 8:00pm 269 1 G 2 80° 45% - - 57° 97.1° 72.4° - - -
6/21 7:50pm 270 2 G 3 81° 44% - - 57° 97.1° 72.4° - - -
6/21 7:40pm 278 2 G 3 82° 42% - - 56° 97.1° 72.4° - - -
6/21 7:30pm 257 2 G 3 82° 42% - - 56° 97.1° 72.4° - - -
6/21 7:20pm 276 3 G 6 82° 40% - - 56° 97.1° 72.4° - - -
6/21 7:10pm 276 3 G 5 84° 38% - - 56° 97.1° 72.4° - - -
6/21 7:00pm 280 3 G 5 85° 36% - - 55° 97.1° 72.4° - - -
6/21 6:50pm 301 3 G 7 86° 35% - - 55° 97.1° 72.4° - - -
6/21 6:40pm 309 4 G 7 86° 33% - - 54° 97.1° 72.4° - - -
6/21 6:30pm 306 4 G 9 87° 32% - - 54° 97.1° 72.4° - - -
6/21 6:20pm 291 5 G 9 88° 30% - - 53° 97.1° 72.4° - - -
6/21 6:10pm 293 5 G 9 89° 27% - - 51° 97.1° 72.4° - - -
6/21 6:00pm 273 5 G 9 90° 23% - - 47° 97.1° 72.4° - - -
6/21 5:50pm 283 5 G 8 89° 23% - - 47° 97.1° 72.4° - - -
6/21 5:40pm 285 6 G 9 89° 25% - - 49° 97.1° 72.4° - - -
6/21 5:30pm 288 5 G 9 89° 26% - - 50° 97.1° 72.4° - - -
6/21 5:20pm 292 6 G 10 89° 27% - - 51° 97.1° 72.4° - - -
6/21 5:10pm 294 6 G 11 89° 27% - - 51° 97.1° 72.4° - - -
6/21 5:00pm 291 7 G 12 90° 27% - - 51° 97.1° 72.4° - - -
6/21 4:50pm 285 7 G 14 90° 27% - - 51° 97.1° 72.4° - - -
6/21 4:40pm 298 6 G 12 90° 27% - - 51° 97.1° 72.4° - - -
6/21 4:30pm 289 6 G 11 91° 26% - - 51° 97.1° 72.4° - - -
6/21 4:20pm 286 7 G 11 90° 26% - - 51° 97.1° 72.4° - - -
6/21 4:10pm 289 7 G 13 91° 26% - - 51° 97.1° 72.4° - - -
6/21 4:00pm 288 7 G 12 91° 24% - - 49° 97.1° 72.4° - - -
6/21 3:50pm 290 7 G 12 92° 23% - - 49° 97.1° 72.4° - - -
6/21 3:40pm 289 7 G 13 92° 23% - - 48° 97.1° 72.4° - - -
6/21 3:30pm 277 7 G 12 92° 21% - - 47° 97.1° 72.4° - - -
6/21 3:20pm 287 8 G 14 93° 21% - - 47° 97.1° 72.4° - - -
6/21 3:10pm 270 7 G 13 93° 21% - - 47° 97.1° 72.4° - - -
6/21 3:00pm 278 7 G 13 93° 21% - - 47° 97.1° 72.4° - - -
6/21 2:50pm 281 7 G 14 93° 21% - - 48° 97.1° 72.4° - - -
6/21 2:40pm 268 8 G 13 93° 20% - - 46° 97.1° 72.4° - - -
6/21 2:30pm 277 9 G 14 93° 21% - - 47° 97.1° 72.4° - - -
6/21 2:20pm 278 9 G 14 94° 21% - - 48° 97.1° 72.4° - - -
6/21 2:10pm 274 8 G 15 94° 20% - - 47° 97.1° 72.4° - - -
6/21 2:00pm 280 8 G 16 96° 17% - - 44° 97.1° 72.4° - - -
6/21 1:50pm 290 7 G 14 96° 16% - - 42° 97.1° 72.4° - - -
6/21 1:40pm 289 7 G 15 96° 17% - - 44° 97.1° 72.4° - - -
6/21 1:30pm 292 8 G 13 96° 17% - - 44° 96.4° 72.4° - - -
6/21 1:20pm 290 8 G 13 95° 17% - - 44° 96.3° 72.4° - - -
6/21 1:10pm 303 7 G 12 95° 18% - - 44° 96.3° 72.4° - - -
6/21 1:00pm 294 7 G 13 95° 19% - - 46° 95.9° 72.4° - - -
6/21 12:50pm 300 6 G 12 95° 19% - - 46° 95.9° 72.4° - - -
6/21 12:40pm 298 7 G 12 94° 19% - - 45° 95.5° 72.4° - - -
6/21 12:30pm 290 7 G 13 95° 16% - - 41° 95.5° 72.4° - - -
6/21 12:20pm 298 7 G 13 94° 17% - - 42° 95.5° 72.4° - - -
6/21 12:10pm 297 8 G 13 94° 17% - - 43° 95.5° 72.4° - - -
6/21 12:00pm 302 7 G 14 94° 17% - - 43° 95.5° 72.4° - - -
6/21 11:50am 301 7 G 13 94° 14% - - 38° 95.5° 72.4° - - -
6/21 11:40am 298 7 G 13 94° 14% - - 37° 95.5° 72.4° - - -
6/21 11:30am 296 6 G 13 95° 13% - - 36° 95.5° 72.4° - - -
6/21 11:20am 298 6 G 11 94° 14% - - 37° 94.9° 72.4° - - -
6/21 11:10am 299 5 G 9 94° 14% - - 38° 94.4° 72.4° - - -
6/21 11:00am 296 6 G 9 94° 15% - - 39° 94.2° 72.4° - - -
6/21 10:50am 294 6 G 9 93° 17% - - 41° 93° 72.4° - - -
6/21 10:40am 306 5 G 9 92° 18% - - 42° 92.7° 72.4° - - -
6/21 10:30am 290 5 G 9 92° 17% - - 41° 92° 72.4° - - -
6/21 10:20am 297 5 G 9 91° 18% - - 41° 91.3° 72.4° - - -
6/21 10:10am 295 5 G 9 91° 19% - - 43° 91.3° 72.4° - - -
6/21 10:00am 297 5 G 9 91° 19% - - 42° 91.3° 72.4° - - -
6/21 9:50am 289 4 G 8 90° 19% - - 43° 90.5° 72.4° - - -
6/21 9:40am 300 3 G 5 90° 19% - - 42° 90.5° 72.4° - - -
6/21 9:30am 238 3 G 5 90° 18% - - 41° 89.9° 72.4° - - -
6/21 9:20am 265 2 G 4 89° 17% - - 39° 89.4° 72.4° - - -
6/21 9:10am 277 1 G 3 88° 17% - - 38° 89.1° 72.4° - - -
6/21 9:00am 244 2 G 3 87° 18% - - 39° 88.9° 72.4° - - -
6/21 8:50am 275 1 G 3 87° 20% - - 42° 88.9° 72.4° - - -
6/21 8:40am 283 1 G 2 86° 22% - - 42° 88.9° 72.4° - - -
6/21 8:30am 269 1 G 3 86° 22% - - 43° 88.9° 72.4° - - -
6/21 8:20am 284 1 G 2 88° 21% - - 43° 88.9° 72.4° - - -
6/21 8:10am 262 0 G 1 86° 21% - - 42° 88° 72.4° - - -
6/21 8:00am 248 0 G 1 87° 21% - - 42° 88° 72.4° - - -
6/21 7:50am 289 0 G 0 87° 20% - - 40° 87.4° 72.4° - - -
6/21 7:40am 0 0 G 0 86° 19% - - 39° 87° 72.4° - - -
6/21 7:30am 0 0 G 0 84° 21% - - 39° 84.4° 72.4° - - -
6/21 7:20am 219 0 G 1 81° 23% - - 40° 83.3° 72.4° - - -
6/21 7:10am 280 0 G 1 80° 22% - - 39° 81° 72.4° - - -
6/21 7:00am 356 0 G 1 80° 23% - - 39° 80.9° 72.4° - - -
6/21 6:50am 1 1 G 2 79° 24% - - 39° 79.9° 72.4° - - -
6/21 6:40am 56 1 G 2 77° 26% - - 39° 79.9° 72.4° - - -
6/21 6:30am 12 1 G 4 76° 26% - - 39° 79.9° 72.4° - - -
6/21 6:20am 105 2 G 5 77° 26% - - 39° 79.9° 72.4° - - -
6/21 6:10am 98 1 G 5 76° 28% - - 41° 79.9° 72.4° - - -
6/21 6:00am 51 1 G 2 76° 29% - - 41° 79.9° 72.4° - - -
6/21 5:50am 3 0 G 1 77° 29% - - 42° 79.9° 72.4° - - -
6/21 5:40am 76 1 G 4 77° 29% - - 42° 79.9° 72.4° - - -
6/21 5:30am 325 1 G 2 77° 30% - - 43° 79.9° 72.4° - - -
6/21 5:20am 94 1 G 3 77° 30% - - 43° 79.9° 72.4° - - -
6/21 5:10am 108 3 G 5 77° 30% - - 43° 79.9° 72.4° - - -
6/21 5:00am 109 2 G 5 76° 32% - - 44° 79.9° 72.4° - - -
6/21 4:50am 117 4 G 6 74° 35% - - 45° 79.9° 72.4° - - -
6/21 4:40am 123 4 G 6 73° 38% - - 46° 79.9° 72.4° - - -
6/21 4:30am 102 3 G 6 76° 34% - - 45° 79.9° 73.5° - - -
6/21 4:20am 115 4 G 6 77° 33% - - 45° 79.9° 74.5° - - -
6/21 4:10am 88 2 G 4 77° 33% - - 46° 79.9° 74.5° - - -
6/21 4:00am 99 2 G 4 77° 34% - - 46° 79.9° 74.5° - - -
6/21 3:50am 102 2 G 5 77° 34% - - 46° 79.9° 74.5° - - -
6/21 3:40am 116 3 G 5 77° 33% - - 46° 79.9° 74.5° - - -
6/21 3:30am 128 4 G 6 75° 35% - - 46° 79.9° 74.5° - - -
6/21 3:20am 121 4 G 7 77° 33% - - 46° 79.9° 74.5° - - -
6/21 3:10am 117 4 G 6 77° 33% - - 46° 79.9° 74.5° - - -
6/21 3:00am 122 4 G 6 76° 35% - - 46° 79.9° 74.5° - - -
6/21 2:50am 97 2 G 4 78° 31% - - 45° 79.9° 75.1° - - -
6/21 2:40am 111 2 G 4 78° 31% - - 45° 79.9° 75.1° - - -
6/21 2:30am 113 2 G 4 78° 30% - - 45° 79.9° 75.1° - - -
6/21 2:20am 110 1 G 4 79° 30% - - 45° 79.9° 75.1° - - -
6/21 2:10am 80 1 G 3 78° 31% - - 45° 79.9° 75.1° - - -
6/21 2:00am 50 1 G 2 78° 32% - - 45° 79.9° 75.1° - - -
6/21 1:50am 323 0 G 1 78° 31% - - 45° 79.9° 75.1° - - -
6/21 1:40am 67 1 G 4 78° 31% - - 45° 79.9° 75.1° - - -
6/21 1:30am 104 2 G 5 77° 32% - - 45° 79.9° 75.1° - - -
6/21 1:20am 121 2 G 5 77° 32% - - 45° 79.9° 75.1° - - -
6/21 1:10am 96 2 G 5 77° 32% - - 45° 79.9° 75.1° - - -
6/21 1:00am 101 3 G 6 77° 33% - - 46° 79.9° 75.1° - - -
6/21 12:50am 114 3 G 5 76° 34% - - 46° 79.9° 75.1° - - -
6/21 12:40am 106 2 G 5 78° 32% - - 46° 79.9° 76.6° - - -
6/21 12:30am 88 1 G 3 79° 31% - - 46° 79.8° 78° - - -
6/21 12:20am 42 0 G 1 79° 32% - - 47° 79.3° 78° - - -
6/21 12:10am 76 0 G 2 78° 33% - - 47° 78.9° 78° - - -
6/21 12:00am 116 1 G 2 80° 31% - - 46° 98.5° 70.5° - - -
6/20 11:50pm 124 3 G 5 79° 33% - - 47° 98.5° 70.5° - - -
6/20 11:40pm 125 3 G 6 78° 33% - - 47° 98.5° 70.5° - - -
6/20 11:30pm 116 3 G 6 78° 33% - - 47° 98.5° 70.5° - - -
6/20 11:20pm 120 4 G 6 77° 35% - - 47° 98.5° 70.5° - - -
6/20 11:10pm 119 5 G 7 77° 35% - - 48° 98.5° 70.5° - - -
6/20 11:00pm 114 3 G 5 79° 34% - - 48° 98.5° 70.5° - - -
6/20 10:50pm 116 3 G 5 79° 34% - - 48° 98.5° 70.5° - - -
6/20 10:40pm 111 3 G 5 78° 35% - - 49° 98.5° 70.5° - - -
6/20 10:30pm 120 3 G 5 79° 35% - - 49° 98.5° 70.5° - - -
6/20 10:20pm 127 3 G 5 80° 34% - - 49° 98.5° 70.5° - - -
6/20 10:10pm 119 4 G 5 79° 35% - - 49° 98.5° 70.5° - - -
6/20 10:00pm 118 3 G 5 80° 34% - - 50° 98.5° 70.5° - - -
6/20 9:50pm 126 4 G 6 79° 36% - - 50° 98.5° 70.5° - - -
6/20 9:40pm 117 4 G 6 78° 39% - - 51° 98.5° 70.5° - - -
6/20 9:30pm 125 4 G 6 78° 38% - - 51° 98.5° 70.5° - - -
6/20 9:20pm 119 3 G 5 79° 37% - - 51° 98.5° 70.5° - - -
6/20 9:10pm 122 5 G 8 80° 36% - - 51° 98.5° 70.5° - - -
6/20 9:00pm 126 4 G 6 79° 37% - - 51° 98.5° 70.5° - - -
6/20 8:50pm 122 4 G 6 80° 36% - - 51° 98.5° 70.5° - - -
6/20 8:40pm 113 3 G 5 81° 35% - - 51° 98.5° 70.5° - - -
6/20 8:30pm 94 2 G 4 82° 34% - - 50° 98.5° 70.5° - - -
6/20 8:20pm 107 2 G 3 83° 33% - - 50° 98.5° 70.5° - - -
6/20 8:10pm 130 1 G 2 83° 32% - - 50° 98.5° 70.5° - - -
6/20 8:00pm 210 1 G 2 85° 30% - - 50° 98.5° 70.5° - - -
6/20 7:50pm 234 1 G 3 86° 29% - - 50° 98.5° 70.5° - - -
6/20 7:40pm 248 1 G 3 86° 28% - - 50° 98.5° 70.5° - - -
6/20 7:30pm 292 2 G 4 87° 27% - - 49° 98.5° 70.5° - - -
6/20 7:20pm 309 3 G 5 88° 26% - - 49° 98.5° 70.5° - - -
6/20 7:10pm 314 3 G 7 88° 26% - - 48° 98.5° 70.5° - - -
6/20 7:00pm 307 4 G 8 89° 25% - - 48° 98.5° 70.5° - - -
6/20 6:50pm 298 4 G 7 89° 24% - - 48° 98.5° 70.5° - - -
6/20 6:40pm 305 4 G 7 90° 23% - - 47° 98.5° 70.5° - - -
6/20 6:30pm 292 5 G 9 90° 22% - - 47° 98.5° 70.5° - - -
6/20 6:20pm 288 4 G 9 91° 21% - - 46° 98.5° 70.5° - - -
6/20 6:10pm 294 6 G 11 91° 21% - - 46° 98.5° 70.5° - - -
6/20 6:00pm 280 6 G 9 91° 21% - - 46° 98.5° 70.5° - - -